sensor_id;sensor_type;location;lat;lon;timestamp;P1;durP1;ratioP1;P2;durP2;ratioP2
18568;SDS011;14780;48.316;-1.050;2023-08-30T00:01:21;5.80;;;3.28;;
18568;SDS011;14780;48.316;-1.050;2023-08-30T00:04:05;6.25;;;3.10;;
18568;SDS011;14780;48.316;-1.050;2023-08-30T00:06:50;6.47;;;2.85;;
18568;SDS011;14780;48.316;-1.050;2023-08-30T00:09:34;5.07;;;3.28;;
18568;SDS011;14780;48.316;-1.050;2023-08-30T00:12:19;5.30;;;3.00;;
18568;SDS011;14780;48.316;-1.050;2023-08-30T00:15:05;5.20;;;3.13;;
18568;SDS011;14780;48.316;-1.050;2023-08-30T00:17:50;5.55;;;3.17;;
18568;SDS011;14780;48.316;-1.050;2023-08-30T00:20:35;5.47;;;3.15;;
18568;SDS011;14780;48.316;-1.050;2023-08-30T00:23:20;5.20;;;3.00;;
18568;SDS011;14780;48.316;-1.050;2023-08-30T00:26:05;5.95;;;2.92;;
18568;SDS011;14780;48.316;-1.050;2023-08-30T00:28:49;4.40;;;2.80;;
18568;SDS011;14780;48.316;-1.050;2023-08-30T00:31:34;5.20;;;3.05;;
18568;SDS011;14780;48.316;-1.050;2023-08-30T00:34:18;5.38;;;2.92;;
18568;SDS011;14780;48.316;-1.050;2023-08-30T00:37:03;5.63;;;2.92;;
18568;SDS011;14780;48.316;-1.050;2023-08-30T00:39:48;4.20;;;2.85;;
18568;SDS011;14780;48.316;-1.050;2023-08-30T00:42:32;7.23;;;3.40;;
18568;SDS011;14780;48.316;-1.050;2023-08-30T00:45:17;5.70;;;2.95;;
18568;SDS011;14780;48.316;-1.050;2023-08-30T00:48:02;6.22;;;3.40;;
18568;SDS011;14780;48.316;-1.050;2023-08-30T00:50:48;6.30;;;3.00;;
18568;SDS011;14780;48.316;-1.050;2023-08-30T00:53:33;5.32;;;3.00;;
18568;SDS011;14780;48.316;-1.050;2023-08-30T00:56:18;4.80;;;2.90;;
18568;SDS011;14780;48.316;-1.050;2023-08-30T00:59:03;4.77;;;3.00;;
18568;SDS011;14780;48.316;-1.050;2023-08-30T01:01:48;5.38;;;2.92;;
18568;SDS011;14780;48.316;-1.050;2023-08-30T01:04:33;4.85;;;3.10;;
18568;SDS011;14780;48.316;-1.050;2023-08-30T01:07:18;5.72;;;3.05;;
18568;SDS011;14780;48.316;-1.050;2023-08-30T01:10:03;5.10;;;3.10;;
18568;SDS011;14780;48.316;-1.050;2023-08-30T01:12:52;5.28;;;3.20;;
18568;SDS011;14780;48.316;-1.050;2023-08-30T01:15:45;5.22;;;3.15;;
18568;SDS011;14780;48.316;-1.050;2023-08-30T01:18:35;4.88;;;2.97;;
18568;SDS011;14780;48.316;-1.050;2023-08-30T01:21:27;5.97;;;3.17;;
18568;SDS011;14780;48.316;-1.050;2023-08-30T01:24:26;5.53;;;3.40;;
18568;SDS011;14780;48.316;-1.050;2023-08-30T01:27:25;4.53;;;2.78;;
18568;SDS011;14780;48.316;-1.050;2023-08-30T01:30:11;5.55;;;3.03;;
18568;SDS011;14780;48.316;-1.050;2023-08-30T01:33:02;5.30;;;2.92;;
18568;SDS011;14780;48.316;-1.050;2023-08-30T01:35:48;4.85;;;2.90;;
18568;SDS011;14780;48.316;-1.050;2023-08-30T01:38:33;5.07;;;2.92;;
18568;SDS011;14780;48.316;-1.050;2023-08-30T01:41:19;4.57;;;3.17;;
18568;SDS011;14780;48.316;-1.050;2023-08-30T01:44:07;4.22;;;2.80;;
18568;SDS011;14780;48.316;-1.050;2023-08-30T01:46:53;4.78;;;3.10;;
18568;SDS011;14780;48.316;-1.050;2023-08-30T01:49:40;5.90;;;3.43;;
18568;SDS011;14780;48.316;-1.050;2023-08-30T01:52:25;7.18;;;3.10;;
18568;SDS011;14780;48.316;-1.050;2023-08-30T01:55:10;4.78;;;3.00;;
18568;SDS011;14780;48.316;-1.050;2023-08-30T01:57:57;4.40;;;2.80;;
18568;SDS011;14780;48.316;-1.050;2023-08-30T02:00:42;3.88;;;2.60;;
18568;SDS011;14780;48.316;-1.050;2023-08-30T02:03:27;4.43;;;2.85;;
18568;SDS011;14780;48.316;-1.050;2023-08-30T02:06:17;4.90;;;3.10;;
18568;SDS011;14780;48.316;-1.050;2023-08-30T02:12:12;5.45;;;3.13;;
18568;SDS011;14780;48.316;-1.050;2023-08-30T02:14:58;4.63;;;2.87;;
18568;SDS011;14780;48.316;-1.050;2023-08-30T02:17:45;4.45;;;2.78;;
18568;SDS011;14780;48.316;-1.050;2023-08-30T02:20:32;3.70;;;2.70;;
18568;SDS011;14780;48.316;-1.050;2023-08-30T02:23:18;4.00;;;2.83;;
18568;SDS011;14780;48.316;-1.050;2023-08-30T02:26:06;4.25;;;2.80;;
18568;SDS011;14780;48.316;-1.050;2023-08-30T02:28:50;4.05;;;2.80;;
18568;SDS011;14780;48.316;-1.050;2023-08-30T02:31:35;4.13;;;2.75;;
18568;SDS011;14780;48.316;-1.050;2023-08-30T02:34:19;4.43;;;2.78;;
18568;SDS011;14780;48.316;-1.050;2023-08-30T02:37:04;4.88;;;2.88;;
18568;SDS011;14780;48.316;-1.050;2023-08-30T02:39:48;4.13;;;2.60;;
18568;SDS011;14780;48.316;-1.050;2023-08-30T02:42:34;5.03;;;2.83;;
18568;SDS011;14780;48.316;-1.050;2023-08-30T02:45:18;4.25;;;2.67;;
18568;SDS011;14780;48.316;-1.050;2023-08-30T02:48:03;4.38;;;2.95;;
18568;SDS011;14780;48.316;-1.050;2023-08-30T02:50:48;4.68;;;2.78;;
18568;SDS011;14780;48.316;-1.050;2023-08-30T02:53:33;4.30;;;2.75;;
18568;SDS011;14780;48.316;-1.050;2023-08-30T02:56:17;4.13;;;2.70;;
18568;SDS011;14780;48.316;-1.050;2023-08-30T02:59:02;5.50;;;2.83;;
18568;SDS011;14780;48.316;-1.050;2023-08-30T03:01:46;4.63;;;2.80;;
18568;SDS011;14780;48.316;-1.050;2023-08-30T03:04:31;4.13;;;2.47;;
18568;SDS011;14780;48.316;-1.050;2023-08-30T03:07:16;3.53;;;2.42;;
18568;SDS011;14780;48.316;-1.050;2023-08-30T03:10:01;4.15;;;2.70;;
18568;SDS011;14780;48.316;-1.050;2023-08-30T03:12:46;3.72;;;2.50;;
18568;SDS011;14780;48.316;-1.050;2023-08-30T03:15:31;3.35;;;2.42;;
18568;SDS011;14780;48.316;-1.050;2023-08-30T03:18:17;3.37;;;2.57;;
18568;SDS011;14780;48.316;-1.050;2023-08-30T03:21:01;3.75;;;2.65;;
18568;SDS011;14780;48.316;-1.050;2023-08-30T03:23:46;3.78;;;2.30;;
18568;SDS011;14780;48.316;-1.050;2023-08-30T03:26:31;3.85;;;2.50;;
18568;SDS011;14780;48.316;-1.050;2023-08-30T03:29:15;3.70;;;2.40;;
18568;SDS011;14780;48.316;-1.050;2023-08-30T03:32:00;4.05;;;2.60;;
18568;SDS011;14780;48.316;-1.050;2023-08-30T03:34:45;4.15;;;2.47;;
18568;SDS011;14780;48.316;-1.050;2023-08-30T03:37:30;5.75;;;2.40;;
18568;SDS011;14780;48.316;-1.050;2023-08-30T03:40:14;4.00;;;2.50;;
18568;SDS011;14780;48.316;-1.050;2023-08-30T03:42:59;3.40;;;2.30;;
18568;SDS011;14780;48.316;-1.050;2023-08-30T03:45:44;3.00;;;1.93;;
18568;SDS011;14780;48.316;-1.050;2023-08-30T03:48:30;3.22;;;2.28;;
18568;SDS011;14780;48.316;-1.050;2023-08-30T03:51:15;3.63;;;2.22;;
18568;SDS011;14780;48.316;-1.050;2023-08-30T03:54:00;3.30;;;2.25;;
18568;SDS011;14780;48.316;-1.050;2023-08-30T03:56:45;3.33;;;2.10;;
18568;SDS011;14780;48.316;-1.050;2023-08-30T03:59:30;2.80;;;2.20;;
18568;SDS011;14780;48.316;-1.050;2023-08-30T04:02:14;4.73;;;2.60;;
18568;SDS011;14780;48.316;-1.050;2023-08-30T04:04:59;4.53;;;2.40;;
18568;SDS011;14780;48.316;-1.050;2023-08-30T04:07:44;4.35;;;2.40;;
18568;SDS011;14780;48.316;-1.050;2023-08-30T04:10:28;3.03;;;2.20;;
18568;SDS011;14780;48.316;-1.050;2023-08-30T04:13:13;3.05;;;2.28;;
18568;SDS011;14780;48.316;-1.050;2023-08-30T04:15:59;3.53;;;2.13;;
18568;SDS011;14780;48.316;-1.050;2023-08-30T04:18:43;2.90;;;2.13;;
18568;SDS011;14780;48.316;-1.050;2023-08-30T04:21:28;3.17;;;2.30;;
18568;SDS011;14780;48.316;-1.050;2023-08-30T04:24:12;3.88;;;2.30;;
18568;SDS011;14780;48.316;-1.050;2023-08-30T04:26:58;3.10;;;2.15;;
18568;SDS011;14780;48.316;-1.050;2023-08-30T04:29:42;3.15;;;2.20;;
18568;SDS011;14780;48.316;-1.050;2023-08-30T04:32:28;3.45;;;2.15;;
18568;SDS011;14780;48.316;-1.050;2023-08-30T04:35:13;3.60;;;2.28;;
18568;SDS011;14780;48.316;-1.050;2023-08-30T04:37:58;3.03;;;2.00;;
18568;SDS011;14780;48.316;-1.050;2023-08-30T04:40:44;3.50;;;2.20;;
18568;SDS011;14780;48.316;-1.050;2023-08-30T04:43:29;3.45;;;2.20;;
18568;SDS011;14780;48.316;-1.050;2023-08-30T04:46:13;4.03;;;2.30;;
18568;SDS011;14780;48.316;-1.050;2023-08-30T04:48:58;2.97;;;2.30;;
18568;SDS011;14780;48.316;-1.050;2023-08-30T04:51:42;3.42;;;2.05;;
18568;SDS011;14780;48.316;-1.050;2023-08-30T04:54:27;3.15;;;2.20;;
18568;SDS011;14780;48.316;-1.050;2023-08-30T04:57:12;3.60;;;2.40;;
18568;SDS011;14780;48.316;-1.050;2023-08-30T04:59:58;4.80;;;2.25;;
18568;SDS011;14780;48.316;-1.050;2023-08-30T05:02:43;3.28;;;2.10;;
18568;SDS011;14780;48.316;-1.050;2023-08-30T05:05:30;3.25;;;2.05;;
18568;SDS011;14780;48.316;-1.050;2023-08-30T05:08:15;4.68;;;2.08;;
18568;SDS011;14780;48.316;-1.050;2023-08-30T05:10:59;3.08;;;1.83;;
18568;SDS011;14780;48.316;-1.050;2023-08-30T05:13:44;4.70;;;2.00;;
18568;SDS011;14780;48.316;-1.050;2023-08-30T05:16:28;4.95;;;2.40;;
18568;SDS011;14780;48.316;-1.050;2023-08-30T05:19:13;3.22;;;2.00;;
18568;SDS011;14780;48.316;-1.050;2023-08-30T05:22:00;5.10;;;2.35;;
18568;SDS011;14780;48.316;-1.050;2023-08-30T05:24:45;4.47;;;2.10;;
18568;SDS011;14780;48.316;-1.050;2023-08-30T05:27:29;4.00;;;2.10;;
18568;SDS011;14780;48.316;-1.050;2023-08-30T05:30:14;3.55;;;2.10;;
18568;SDS011;14780;48.316;-1.050;2023-08-30T05:33:00;3.58;;;2.20;;
18568;SDS011;14780;48.316;-1.050;2023-08-30T05:35:44;3.72;;;2.10;;
18568;SDS011;14780;48.316;-1.050;2023-08-30T05:38:29;3.77;;;2.30;;
18568;SDS011;14780;48.316;-1.050;2023-08-30T05:41:14;3.05;;;2.13;;
18568;SDS011;14780;48.316;-1.050;2023-08-30T05:43:58;3.90;;;2.30;;
18568;SDS011;14780;48.316;-1.050;2023-08-30T05:46:43;3.35;;;1.85;;
18568;SDS011;14780;48.316;-1.050;2023-08-30T05:49:27;3.22;;;2.10;;
18568;SDS011;14780;48.316;-1.050;2023-08-30T05:52:14;3.38;;;1.90;;
18568;SDS011;14780;48.316;-1.050;2023-08-30T05:55:02;4.63;;;2.20;;
18568;SDS011;14780;48.316;-1.050;2023-08-30T05:57:48;3.90;;;2.00;;
18568;SDS011;14780;48.316;-1.050;2023-08-30T06:00:32;2.40;;;1.92;;
18568;SDS011;14780;48.316;-1.050;2023-08-30T06:03:17;5.93;;;2.20;;
18568;SDS011;14780;48.316;-1.050;2023-08-30T06:06:01;3.85;;;1.80;;
18568;SDS011;14780;48.316;-1.050;2023-08-30T06:08:47;4.15;;;2.03;;
18568;SDS011;14780;48.316;-1.050;2023-08-30T06:11:32;5.10;;;2.30;;
18568;SDS011;14780;48.316;-1.050;2023-08-30T06:14:16;4.30;;;2.00;;
18568;SDS011;14780;48.316;-1.050;2023-08-30T06:17:01;4.53;;;2.10;;
18568;SDS011;14780;48.316;-1.050;2023-08-30T06:19:47;4.82;;;2.20;;
18568;SDS011;14780;48.316;-1.050;2023-08-30T06:22:32;5.22;;;2.40;;
18568;SDS011;14780;48.316;-1.050;2023-08-30T06:25:16;6.85;;;2.72;;
18568;SDS011;14780;48.316;-1.050;2023-08-30T06:28:01;6.60;;;2.40;;
18568;SDS011;14780;48.316;-1.050;2023-08-30T06:30:46;4.15;;;2.22;;
18568;SDS011;14780;48.316;-1.050;2023-08-30T06:33:31;5.00;;;2.30;;
18568;SDS011;14780;48.316;-1.050;2023-08-30T06:36:16;5.30;;;2.20;;
18568;SDS011;14780;48.316;-1.050;2023-08-30T06:39:02;4.30;;;2.38;;
18568;SDS011;14780;48.316;-1.050;2023-08-30T06:41:47;9.10;;;2.50;;
18568;SDS011;14780;48.316;-1.050;2023-08-30T06:44:32;6.25;;;2.40;;
18568;SDS011;14780;48.316;-1.050;2023-08-30T06:47:17;5.97;;;2.30;;
18568;SDS011;14780;48.316;-1.050;2023-08-30T06:50:02;5.95;;;2.50;;
18568;SDS011;14780;48.316;-1.050;2023-08-30T06:52:47;6.82;;;2.38;;
18568;SDS011;14780;48.316;-1.050;2023-08-30T06:55:32;6.13;;;2.23;;
18568;SDS011;14780;48.316;-1.050;2023-08-30T06:58:19;5.53;;;2.40;;
18568;SDS011;14780;48.316;-1.050;2023-08-30T07:01:03;4.15;;;2.17;;
18568;SDS011;14780;48.316;-1.050;2023-08-30T07:03:48;5.32;;;2.30;;
18568;SDS011;14780;48.316;-1.050;2023-08-30T07:06:33;4.47;;;2.38;;
18568;SDS011;14780;48.316;-1.050;2023-08-30T07:09:18;4.68;;;2.10;;
18568;SDS011;14780;48.316;-1.050;2023-08-30T07:12:02;6.05;;;2.30;;
18568;SDS011;14780;48.316;-1.050;2023-08-30T07:14:47;5.50;;;2.33;;
18568;SDS011;14780;48.316;-1.050;2023-08-30T07:17:32;6.07;;;2.45;;
18568;SDS011;14780;48.316;-1.050;2023-08-30T07:20:16;14.75;;;4.88;;
18568;SDS011;14780;48.316;-1.050;2023-08-30T07:23:01;11.20;;;3.80;;
18568;SDS011;14780;48.316;-1.050;2023-08-30T07:25:46;15.85;;;4.82;;
18568;SDS011;14780;48.316;-1.050;2023-08-30T07:28:31;15.20;;;4.50;;
18568;SDS011;14780;48.316;-1.050;2023-08-30T07:31:16;13.45;;;4.68;;
18568;SDS011;14780;48.316;-1.050;2023-08-30T07:34:01;17.48;;;4.55;;
18568;SDS011;14780;48.316;-1.050;2023-08-30T07:36:47;18.60;;;4.70;;
18568;SDS011;14780;48.316;-1.050;2023-08-30T07:39:31;7.95;;;3.80;;
18568;SDS011;14780;48.316;-1.050;2023-08-30T07:42:16;10.75;;;4.05;;
18568;SDS011;14780;48.316;-1.050;2023-08-30T07:45:00;12.60;;;3.50;;
18568;SDS011;14780;48.316;-1.050;2023-08-30T07:47:47;9.63;;;3.60;;
18568;SDS011;14780;48.316;-1.050;2023-08-30T07:50:32;11.30;;;3.55;;
18568;SDS011;14780;48.316;-1.050;2023-08-30T07:53:16;9.70;;;3.40;;
18568;SDS011;14780;48.316;-1.050;2023-08-30T07:56:01;9.27;;;3.40;;
18568;SDS011;14780;48.316;-1.050;2023-08-30T07:58:46;8.07;;;3.23;;
18568;SDS011;14780;48.316;-1.050;2023-08-30T08:01:31;9.93;;;3.40;;
18568;SDS011;14780;48.316;-1.050;2023-08-30T08:04:16;6.72;;;3.25;;
18568;SDS011;14780;48.316;-1.050;2023-08-30T08:07:01;25.63;;;5.25;;
18568;SDS011;14780;48.316;-1.050;2023-08-30T08:09:47;37.63;;;6.68;;
18568;SDS011;14780;48.316;-1.050;2023-08-30T08:12:32;91.10;;;15.07;;
18568;SDS011;14780;48.316;-1.050;2023-08-30T08:15:17;88.88;;;13.60;;
18568;SDS011;14780;48.316;-1.050;2023-08-30T08:18:02;74.38;;;11.75;;
18568;SDS011;14780;48.316;-1.050;2023-08-30T08:20:48;67.57;;;12.52;;
18568;SDS011;14780;48.316;-1.050;2023-08-30T08:23:33;68.80;;;11.52;;
18568;SDS011;14780;48.316;-1.050;2023-08-30T08:26:18;59.30;;;11.18;;
18568;SDS011;14780;48.316;-1.050;2023-08-30T08:29:02;75.03;;;12.30;;
18568;SDS011;14780;48.316;-1.050;2023-08-30T08:31:47;53.67;;;9.98;;
18568;SDS011;14780;48.316;-1.050;2023-08-30T08:34:32;66.00;;;11.23;;
18568;SDS011;14780;48.316;-1.050;2023-08-30T08:37:17;65.40;;;10.77;;
18568;SDS011;14780;48.316;-1.050;2023-08-30T08:40:01;81.72;;;11.70;;
18568;SDS011;14780;48.316;-1.050;2023-08-30T08:42:52;48.63;;;10.15;;
18568;SDS011;14780;48.316;-1.050;2023-08-30T08:45:39;60.40;;;9.75;;
18568;SDS011;14780;48.316;-1.050;2023-08-30T08:48:23;43.97;;;8.90;;
18568;SDS011;14780;48.316;-1.050;2023-08-30T08:51:13;48.53;;;8.80;;
18568;SDS011;14780;48.316;-1.050;2023-08-30T08:53:58;27.97;;;6.87;;
18568;SDS011;14780;48.316;-1.050;2023-08-30T08:56:47;39.13;;;7.67;;
18568;SDS011;14780;48.316;-1.050;2023-08-30T08:59:33;27.52;;;5.80;;
18568;SDS011;14780;48.316;-1.050;2023-08-30T09:02:18;36.15;;;7.30;;
18568;SDS011;14780;48.316;-1.050;2023-08-30T09:05:03;22.77;;;5.87;;
18568;SDS011;14780;48.316;-1.050;2023-08-30T09:07:48;30.73;;;7.03;;
18568;SDS011;14780;48.316;-1.050;2023-08-30T09:10:36;27.45;;;5.82;;
18568;SDS011;14780;48.316;-1.050;2023-08-30T09:13:23;23.08;;;5.72;;
18568;SDS011;14780;48.316;-1.050;2023-08-30T09:16:14;26.47;;;6.47;;
18568;SDS011;14780;48.316;-1.050;2023-08-30T09:19:03;21.13;;;5.32;;
18568;SDS011;14780;48.316;-1.050;2023-08-30T09:21:52;22.30;;;6.43;;
18568;SDS011;14780;48.316;-1.050;2023-08-30T09:24:38;25.38;;;6.35;;
18568;SDS011;14780;48.316;-1.050;2023-08-30T09:27:31;27.88;;;5.55;;
18568;SDS011;14780;48.316;-1.050;2023-08-30T09:30:23;21.40;;;5.27;;
18568;SDS011;14780;48.316;-1.050;2023-08-30T09:33:07;16.48;;;4.53;;
18568;SDS011;14780;48.316;-1.050;2023-08-30T09:35:52;19.40;;;5.15;;
18568;SDS011;14780;48.316;-1.050;2023-08-30T09:38:37;20.58;;;5.10;;
18568;SDS011;14780;48.316;-1.050;2023-08-30T09:41:22;20.08;;;5.00;;
18568;SDS011;14780;48.316;-1.050;2023-08-30T09:44:18;15.52;;;4.43;;
18568;SDS011;14780;48.316;-1.050;2023-08-30T09:47:04;19.23;;;4.78;;
18568;SDS011;14780;48.316;-1.050;2023-08-30T09:49:49;21.02;;;5.30;;
18568;SDS011;14780;48.316;-1.050;2023-08-30T09:52:37;22.00;;;4.90;;
18568;SDS011;14780;48.316;-1.050;2023-08-30T09:55:22;18.23;;;4.43;;
18568;SDS011;14780;48.316;-1.050;2023-08-30T09:58:09;20.88;;;4.68;;
18568;SDS011;14780;48.316;-1.050;2023-08-30T10:00:54;16.57;;;4.47;;
18568;SDS011;14780;48.316;-1.050;2023-08-30T10:03:40;15.52;;;4.40;;
18568;SDS011;14780;48.316;-1.050;2023-08-30T10:06:26;12.10;;;3.90;;
18568;SDS011;14780;48.316;-1.050;2023-08-30T10:09:11;11.35;;;3.92;;
18568;SDS011;14780;48.316;-1.050;2023-08-30T10:11:57;14.77;;;4.10;;
18568;SDS011;14780;48.316;-1.050;2023-08-30T10:14:45;17.55;;;4.13;;
18568;SDS011;14780;48.316;-1.050;2023-08-30T10:17:31;12.52;;;3.70;;
18568;SDS011;14780;48.316;-1.050;2023-08-30T10:20:18;14.98;;;4.13;;
18568;SDS011;14780;48.316;-1.050;2023-08-30T10:23:04;12.68;;;3.95;;
18568;SDS011;14780;48.316;-1.050;2023-08-30T10:25:49;21.63;;;4.40;;
18568;SDS011;14780;48.316;-1.050;2023-08-30T10:28:36;15.90;;;4.30;;
18568;SDS011;14780;48.316;-1.050;2023-08-30T10:31:23;21.23;;;4.68;;
18568;SDS011;14780;48.316;-1.050;2023-08-30T10:34:12;20.25;;;4.65;;
18568;SDS011;14780;48.316;-1.050;2023-08-30T10:37:00;22.98;;;4.78;;
18568;SDS011;14780;48.316;-1.050;2023-08-30T10:39:47;17.25;;;4.43;;
18568;SDS011;14780;48.316;-1.050;2023-08-30T10:42:32;21.48;;;4.50;;
18568;SDS011;14780;48.316;-1.050;2023-08-30T10:45:22;22.63;;;5.70;;
18568;SDS011;14780;48.316;-1.050;2023-08-30T10:48:08;62.78;;;10.90;;
18568;SDS011;14780;48.316;-1.050;2023-08-30T10:50:54;37.33;;;7.25;;
18568;SDS011;14780;48.316;-1.050;2023-08-30T10:53:39;48.33;;;8.88;;
18568;SDS011;14780;48.316;-1.050;2023-08-30T10:56:28;43.72;;;9.48;;
18568;SDS011;14780;48.316;-1.050;2023-08-30T10:59:20;85.97;;;14.85;;
18568;SDS011;14780;48.316;-1.050;2023-08-30T11:02:06;64.80;;;10.80;;
18568;SDS011;14780;48.316;-1.050;2023-08-30T11:04:51;98.63;;;14.77;;
18568;SDS011;14780;48.316;-1.050;2023-08-30T11:07:36;76.20;;;12.88;;
18568;SDS011;14780;48.316;-1.050;2023-08-30T11:10:21;77.70;;;12.53;;
18568;SDS011;14780;48.316;-1.050;2023-08-30T11:13:06;78.40;;;13.80;;
18568;SDS011;14780;48.316;-1.050;2023-08-30T11:15:51;64.35;;;11.48;;
18568;SDS011;14780;48.316;-1.050;2023-08-30T11:18:36;54.00;;;10.20;;
18568;SDS011;14780;48.316;-1.050;2023-08-30T11:21:25;53.15;;;10.35;;
18568;SDS011;14780;48.316;-1.050;2023-08-30T11:24:11;51.35;;;9.07;;
18568;SDS011;14780;48.316;-1.050;2023-08-30T11:26:56;38.33;;;8.98;;
18568;SDS011;14780;48.316;-1.050;2023-08-30T11:29:40;38.90;;;7.93;;
18568;SDS011;14780;48.316;-1.050;2023-08-30T11:32:26;43.05;;;7.95;;
18568;SDS011;14780;48.316;-1.050;2023-08-30T11:35:11;40.20;;;9.07;;
18568;SDS011;14780;48.316;-1.050;2023-08-30T11:37:55;33.85;;;7.80;;
18568;SDS011;14780;48.316;-1.050;2023-08-30T11:40:41;34.53;;;7.65;;
18568;SDS011;14780;48.316;-1.050;2023-08-30T11:43:26;23.58;;;5.63;;
18568;SDS011;14780;48.316;-1.050;2023-08-30T11:46:11;28.65;;;6.53;;
18568;SDS011;14780;48.316;-1.050;2023-08-30T11:48:56;27.30;;;6.57;;
18568;SDS011;14780;48.316;-1.050;2023-08-30T11:51:41;23.70;;;6.25;;
18568;SDS011;14780;48.316;-1.050;2023-08-30T11:54:26;20.40;;;5.40;;
18568;SDS011;14780;48.316;-1.050;2023-08-30T11:57:12;20.23;;;5.68;;
18568;SDS011;14780;48.316;-1.050;2023-08-30T12:00:06;24.40;;;5.90;;
18568;SDS011;14780;48.316;-1.050;2023-08-30T12:02:54;17.55;;;4.75;;
18568;SDS011;14780;48.316;-1.050;2023-08-30T12:05:49;18.23;;;5.18;;
18568;SDS011;14780;48.316;-1.050;2023-08-30T12:08:34;13.73;;;4.68;;
18568;SDS011;14780;48.316;-1.050;2023-08-30T12:11:19;16.57;;;5.67;;
18568;SDS011;14780;48.316;-1.050;2023-08-30T12:14:04;11.15;;;3.67;;
18568;SDS011;14780;48.316;-1.050;2023-08-30T12:16:49;8.47;;;3.73;;
18568;SDS011;14780;48.316;-1.050;2023-08-30T12:19:34;9.88;;;3.60;;
18568;SDS011;14780;48.316;-1.050;2023-08-30T12:22:19;16.27;;;4.07;;
18568;SDS011;14780;48.316;-1.050;2023-08-30T12:25:04;9.95;;;4.47;;
18568;SDS011;14780;48.316;-1.050;2023-08-30T12:28:06;11.50;;;4.72;;
18568;SDS011;14780;48.316;-1.050;2023-08-30T12:30:50;11.27;;;3.90;;
18568;SDS011;14780;48.316;-1.050;2023-08-30T12:33:36;12.43;;;4.60;;
18568;SDS011;14780;48.316;-1.050;2023-08-30T12:36:23;10.82;;;4.10;;
18568;SDS011;14780;48.316;-1.050;2023-08-30T12:39:08;15.45;;;4.13;;
18568;SDS011;14780;48.316;-1.050;2023-08-30T12:41:52;12.43;;;3.57;;
18568;SDS011;14780;48.316;-1.050;2023-08-30T12:44:37;13.07;;;4.20;;
18568;SDS011;14780;48.316;-1.050;2023-08-30T12:47:22;9.80;;;3.72;;
18568;SDS011;14780;48.316;-1.050;2023-08-30T12:50:07;9.25;;;3.47;;
18568;SDS011;14780;48.316;-1.050;2023-08-30T12:52:53;12.05;;;3.85;;
18568;SDS011;14780;48.316;-1.050;2023-08-30T12:55:38;9.57;;;3.60;;
18568;SDS011;14780;48.316;-1.050;2023-08-30T12:58:23;11.25;;;3.90;;
18568;SDS011;14780;48.316;-1.050;2023-08-30T13:01:08;12.98;;;4.10;;
18568;SDS011;14780;48.316;-1.050;2023-08-30T13:03:52;9.00;;;3.85;;
18568;SDS011;14780;48.316;-1.050;2023-08-30T13:06:37;9.70;;;3.80;;
18568;SDS011;14780;48.316;-1.050;2023-08-30T13:09:22;8.68;;;3.67;;
18568;SDS011;14780;48.316;-1.050;2023-08-30T13:12:08;8.43;;;3.47;;
18568;SDS011;14780;48.316;-1.050;2023-08-30T13:14:52;9.43;;;3.70;;
18568;SDS011;14780;48.316;-1.050;2023-08-30T13:17:37;10.68;;;3.78;;
18568;SDS011;14780;48.316;-1.050;2023-08-30T13:20:22;7.93;;;3.47;;
18568;SDS011;14780;48.316;-1.050;2023-08-30T13:23:06;7.45;;;3.45;;
18568;SDS011;14780;48.316;-1.050;2023-08-30T13:25:51;10.32;;;4.10;;
18568;SDS011;14780;48.316;-1.050;2023-08-30T13:28:36;8.32;;;3.60;;
18568;SDS011;14780;48.316;-1.050;2023-08-30T13:31:21;9.27;;;3.40;;
18568;SDS011;14780;48.316;-1.050;2023-08-30T13:34:06;9.93;;;3.70;;
18568;SDS011;14780;48.316;-1.050;2023-08-30T13:36:50;8.65;;;3.70;;
18568;SDS011;14780;48.316;-1.050;2023-08-30T13:39:36;8.93;;;3.90;;
18568;SDS011;14780;48.316;-1.050;2023-08-30T13:42:21;6.63;;;3.30;;
18568;SDS011;14780;48.316;-1.050;2023-08-30T13:45:06;7.47;;;3.33;;
18568;SDS011;14780;48.316;-1.050;2023-08-30T13:47:53;10.32;;;3.28;;
18568;SDS011;14780;48.316;-1.050;2023-08-30T13:50:41;7.53;;;3.30;;
18568;SDS011;14780;48.316;-1.050;2023-08-30T13:53:26;7.68;;;3.30;;
18568;SDS011;14780;48.316;-1.050;2023-08-30T13:56:11;8.80;;;3.70;;
18568;SDS011;14780;48.316;-1.050;2023-08-30T13:58:56;8.25;;;3.50;;
18568;SDS011;14780;48.316;-1.050;2023-08-30T14:01:41;7.65;;;3.33;;
18568;SDS011;14780;48.316;-1.050;2023-08-30T14:04:26;9.93;;;3.53;;
18568;SDS011;14780;48.316;-1.050;2023-08-30T14:07:12;15.40;;;3.88;;
18568;SDS011;14780;48.316;-1.050;2023-08-30T14:09:57;11.95;;;4.57;;
18568;SDS011;14780;48.316;-1.050;2023-08-30T14:12:42;8.60;;;3.58;;
18568;SDS011;14780;48.316;-1.050;2023-08-30T14:15:27;14.07;;;4.03;;
18568;SDS011;14780;48.316;-1.050;2023-08-30T14:18:12;10.45;;;4.25;;
18568;SDS011;14780;48.316;-1.050;2023-08-30T14:20:58;11.13;;;3.85;;
18568;SDS011;14780;48.316;-1.050;2023-08-30T14:23:44;12.63;;;4.20;;
18568;SDS011;14780;48.316;-1.050;2023-08-30T14:26:29;14.27;;;4.13;;
18568;SDS011;14780;48.316;-1.050;2023-08-30T14:29:14;11.47;;;3.90;;
18568;SDS011;14780;48.316;-1.050;2023-08-30T14:31:59;14.68;;;4.22;;
18568;SDS011;14780;48.316;-1.050;2023-08-30T14:34:44;15.00;;;4.40;;
18568;SDS011;14780;48.316;-1.050;2023-08-30T14:37:28;13.48;;;4.15;;
18568;SDS011;14780;48.316;-1.050;2023-08-30T14:40:13;12.90;;;4.10;;
18568;SDS011;14780;48.316;-1.050;2023-08-30T14:42:58;12.75;;;4.32;;
18568;SDS011;14780;48.316;-1.050;2023-08-30T14:45:43;11.88;;;4.20;;
18568;SDS011;14780;48.316;-1.050;2023-08-30T14:48:27;12.65;;;4.03;;
18568;SDS011;14780;48.316;-1.050;2023-08-30T14:51:12;10.88;;;4.30;;
18568;SDS011;14780;48.316;-1.050;2023-08-30T14:53:57;20.08;;;5.00;;
18568;SDS011;14780;48.316;-1.050;2023-08-30T14:56:42;12.15;;;4.35;;
18568;SDS011;14780;48.316;-1.050;2023-08-30T14:59:27;13.88;;;4.47;;
18568;SDS011;14780;48.316;-1.050;2023-08-30T15:02:11;19.20;;;5.97;;
18568;SDS011;14780;48.316;-1.050;2023-08-30T15:04:56;22.73;;;6.20;;
18568;SDS011;14780;48.316;-1.050;2023-08-30T15:07:41;23.60;;;6.30;;
18568;SDS011;14780;48.316;-1.050;2023-08-30T15:10:25;23.13;;;7.15;;
18568;SDS011;14780;48.316;-1.050;2023-08-30T15:13:10;17.92;;;6.03;;
18568;SDS011;14780;48.316;-1.050;2023-08-30T15:15:55;20.30;;;6.37;;
18568;SDS011;14780;48.316;-1.050;2023-08-30T15:18:39;21.65;;;5.78;;
18568;SDS011;14780;48.316;-1.050;2023-08-30T15:21:24;27.40;;;6.70;;
18568;SDS011;14780;48.316;-1.050;2023-08-30T15:24:09;22.33;;;6.10;;
18568;SDS011;14780;48.316;-1.050;2023-08-30T15:26:56;26.97;;;6.37;;
18568;SDS011;14780;48.316;-1.050;2023-08-30T15:29:41;23.23;;;6.28;;
18568;SDS011;14780;48.316;-1.050;2023-08-30T15:32:26;21.70;;;5.45;;
18568;SDS011;14780;48.316;-1.050;2023-08-30T15:35:11;21.20;;;5.87;;
18568;SDS011;14780;48.316;-1.050;2023-08-30T15:37:56;16.58;;;4.72;;
18568;SDS011;14780;48.316;-1.050;2023-08-30T15:40:41;19.40;;;5.50;;
18568;SDS011;14780;48.316;-1.050;2023-08-30T15:43:26;19.00;;;5.90;;
18568;SDS011;14780;48.316;-1.050;2023-08-30T15:46:11;14.05;;;5.15;;
18568;SDS011;14780;48.316;-1.050;2023-08-30T15:48:56;14.10;;;5.07;;
18568;SDS011;14780;48.316;-1.050;2023-08-30T15:51:41;17.80;;;5.57;;
18568;SDS011;14780;48.316;-1.050;2023-08-30T15:54:25;19.60;;;5.60;;
18568;SDS011;14780;48.316;-1.050;2023-08-30T15:57:10;12.63;;;4.70;;
18568;SDS011;14780;48.316;-1.050;2023-08-30T15:59:54;15.05;;;4.95;;
18568;SDS011;14780;48.316;-1.050;2023-08-30T16:02:39;15.00;;;4.80;;
18568;SDS011;14780;48.316;-1.050;2023-08-30T16:05:24;11.82;;;5.00;;
18568;SDS011;14780;48.316;-1.050;2023-08-30T16:08:08;11.25;;;4.28;;
18568;SDS011;14780;48.316;-1.050;2023-08-30T16:10:54;10.00;;;4.33;;
18568;SDS011;14780;48.316;-1.050;2023-08-30T16:13:39;10.73;;;3.97;;
18568;SDS011;14780;48.316;-1.050;2023-08-30T16:16:24;15.45;;;4.70;;
18568;SDS011;14780;48.316;-1.050;2023-08-30T16:19:09;15.25;;;4.60;;